sensor_id;sensor_type;location;lat;lon;timestamp;P1;durP1;ratioP1;P2;durP2;ratioP2
20411;SDS011;10365;52.578;8.138;2024-01-06T00:00:10;42.55;;;14.13;;
20411;SDS011;10365;52.578;8.138;2024-01-06T00:02:38;43.65;;;13.32;;
20411;SDS011;10365;52.578;8.138;2024-01-06T00:05:04;47.50;;;14.10;;
20411;SDS011;10365;52.578;8.138;2024-01-06T00:07:29;32.50;;;12.85;;
20411;SDS011;10365;52.578;8.138;2024-01-06T00:09:55;35.28;;;11.57;;
20411;SDS011;10365;52.578;8.138;2024-01-06T00:12:20;44.38;;;14.52;;
20411;SDS011;10365;52.578;8.138;2024-01-06T00:14:45;43.20;;;14.63;;
20411;SDS011;10365;52.578;8.138;2024-01-06T00:17:11;37.47;;;13.57;;
20411;SDS011;10365;52.578;8.138;2024-01-06T00:19:36;39.90;;;14.27;;
20411;SDS011;10365;52.578;8.138;2024-01-06T00:22:01;50.45;;;18.35;;
20411;SDS011;10365;52.578;8.138;2024-01-06T00:24:27;37.65;;;13.68;;
20411;SDS011;10365;52.578;8.138;2024-01-06T00:26:52;35.47;;;13.45;;
20411;SDS011;10365;52.578;8.138;2024-01-06T00:29:18;36.53;;;13.38;;
20411;SDS011;10365;52.578;8.138;2024-01-06T00:31:43;36.50;;;13.55;;
20411;SDS011;10365;52.578;8.138;2024-01-06T00:34:08;30.95;;;12.50;;
20411;SDS011;10365;52.578;8.138;2024-01-06T00:36:34;31.00;;;11.82;;
20411;SDS011;10365;52.578;8.138;2024-01-06T00:38:59;28.30;;;11.45;;
20411;SDS011;10365;52.578;8.138;2024-01-06T00:41:24;28.60;;;11.27;;
20411;SDS011;10365;52.578;8.138;2024-01-06T00:43:50;31.85;;;12.20;;
20411;SDS011;10365;52.578;8.138;2024-01-06T00:46:18;30.50;;;11.93;;
20411;SDS011;10365;52.578;8.138;2024-01-06T00:48:43;27.45;;;10.80;;
20411;SDS011;10365;52.578;8.138;2024-01-06T00:51:08;28.27;;;11.27;;
20411;SDS011;10365;52.578;8.138;2024-01-06T00:53:34;22.80;;;9.05;;
20411;SDS011;10365;52.578;8.138;2024-01-06T00:56:03;21.02;;;8.68;;
20411;SDS011;10365;52.578;8.138;2024-01-06T00:58:28;24.98;;;8.70;;
20411;SDS011;10365;52.578;8.138;2024-01-06T01:00:53;18.92;;;7.80;;
20411;SDS011;10365;52.578;8.138;2024-01-06T01:03:18;22.65;;;9.15;;
20411;SDS011;10365;52.578;8.138;2024-01-06T01:05:44;19.35;;;7.78;;
20411;SDS011;10365;52.578;8.138;2024-01-06T01:08:09;20.60;;;8.60;;
20411;SDS011;10365;52.578;8.138;2024-01-06T01:10:34;17.98;;;7.65;;
20411;SDS011;10365;52.578;8.138;2024-01-06T01:13:00;19.60;;;7.03;;
20411;SDS011;10365;52.578;8.138;2024-01-06T01:15:25;25.25;;;8.57;;
20411;SDS011;10365;52.578;8.138;2024-01-06T01:17:50;17.70;;;7.60;;
20411;SDS011;10365;52.578;8.138;2024-01-06T01:20:16;16.60;;;7.50;;
20411;SDS011;10365;52.578;8.138;2024-01-06T01:22:42;19.73;;;8.20;;
20411;SDS011;10365;52.578;8.138;2024-01-06T01:25:07;13.90;;;6.45;;
20411;SDS011;10365;52.578;8.138;2024-01-06T01:27:33;19.05;;;7.32;;
20411;SDS011;10365;52.578;8.138;2024-01-06T01:29:59;13.98;;;7.00;;
20411;SDS011;10365;52.578;8.138;2024-01-06T01:32:24;12.27;;;6.70;;
20411;SDS011;10365;52.578;8.138;2024-01-06T01:34:49;11.98;;;6.30;;
20411;SDS011;10365;52.578;8.138;2024-01-06T01:37:15;9.07;;;5.13;;
20411;SDS011;10365;52.578;8.138;2024-01-06T01:39:40;10.43;;;6.30;;
20411;SDS011;10365;52.578;8.138;2024-01-06T01:42:05;12.05;;;5.90;;
20411;SDS011;10365;52.578;8.138;2024-01-06T01:44:31;10.38;;;5.78;;
20411;SDS011;10365;52.578;8.138;2024-01-06T01:46:56;10.88;;;5.55;;
20411;SDS011;10365;52.578;8.138;2024-01-06T01:49:21;10.43;;;5.63;;
20411;SDS011;10365;52.578;8.138;2024-01-06T01:51:47;10.38;;;5.60;;
20411;SDS011;10365;52.578;8.138;2024-01-06T01:54:13;9.45;;;5.55;;
20411;SDS011;10365;52.578;8.138;2024-01-06T01:56:39;11.25;;;5.60;;
20411;SDS011;10365;52.578;8.138;2024-01-06T01:59:14;12.25;;;6.53;;
20411;SDS011;10365;52.578;8.138;2024-01-06T02:01:41;12.18;;;7.03;;
20411;SDS011;10365;52.578;8.138;2024-01-06T02:04:07;13.98;;;7.18;;
20411;SDS011;10365;52.578;8.138;2024-01-06T02:06:33;15.52;;;7.65;;
20411;SDS011;10365;52.578;8.138;2024-01-06T02:08:58;15.75;;;8.07;;
20411;SDS011;10365;52.578;8.138;2024-01-06T02:11:23;21.00;;;9.95;;
20411;SDS011;10365;52.578;8.138;2024-01-06T02:13:49;14.52;;;8.57;;
20411;SDS011;10365;52.578;8.138;2024-01-06T02:16:14;20.35;;;10.45;;
20411;SDS011;10365;52.578;8.138;2024-01-06T02:18:39;18.70;;;10.75;;
20411;SDS011;10365;52.578;8.138;2024-01-06T02:21:05;20.65;;;11.02;;
20411;SDS011;10365;52.578;8.138;2024-01-06T02:23:34;21.27;;;11.27;;
20411;SDS011;10365;52.578;8.138;2024-01-06T02:25:59;23.85;;;12.45;;
20411;SDS011;10365;52.578;8.138;2024-01-06T02:28:24;19.83;;;10.80;;
20411;SDS011;10365;52.578;8.138;2024-01-06T02:30:50;18.70;;;10.32;;
20411;SDS011;10365;52.578;8.138;2024-01-06T02:33:15;19.30;;;10.80;;
20411;SDS011;10365;52.578;8.138;2024-01-06T02:35:41;18.85;;;10.65;;
20411;SDS011;10365;52.578;8.138;2024-01-06T02:38:06;20.17;;;11.25;;
20411;SDS011;10365;52.578;8.138;2024-01-06T02:40:32;20.02;;;9.98;;
20411;SDS011;10365;52.578;8.138;2024-01-06T02:42:58;15.88;;;9.20;;
20411;SDS011;10365;52.578;8.138;2024-01-06T02:45:23;18.75;;;9.52;;
20411;SDS011;10365;52.578;8.138;2024-01-06T02:47:48;18.27;;;9.38;;
20411;SDS011;10365;52.578;8.138;2024-01-06T02:50:14;17.65;;;9.18;;
20411;SDS011;10365;52.578;8.138;2024-01-06T02:52:39;17.52;;;9.30;;
20411;SDS011;10365;52.578;8.138;2024-01-06T02:55:04;18.63;;;9.48;;
20411;SDS011;10365;52.578;8.138;2024-01-06T02:57:30;15.10;;;8.60;;
20411;SDS011;10365;52.578;8.138;2024-01-06T02:59:56;15.52;;;8.70;;
20411;SDS011;10365;52.578;8.138;2024-01-06T03:02:21;17.35;;;8.98;;
20411;SDS011;10365;52.578;8.138;2024-01-06T03:04:46;16.00;;;9.00;;
20411;SDS011;10365;52.578;8.138;2024-01-06T03:07:12;16.92;;;9.05;;
20411;SDS011;10365;52.578;8.138;2024-01-06T03:09:37;17.92;;;9.45;;
20411;SDS011;10365;52.578;8.138;2024-01-06T03:12:04;18.45;;;10.18;;
20411;SDS011;10365;52.578;8.138;2024-01-06T03:14:31;18.48;;;10.00;;
20411;SDS011;10365;52.578;8.138;2024-01-06T03:16:56;16.35;;;9.15;;
20411;SDS011;10365;52.578;8.138;2024-01-06T03:19:22;17.27;;;9.57;;
20411;SDS011;10365;52.578;8.138;2024-01-06T03:21:51;16.38;;;9.55;;
20411;SDS011;10365;52.578;8.138;2024-01-06T03:24:16;14.90;;;8.32;;
20411;SDS011;10365;52.578;8.138;2024-01-06T03:26:41;17.25;;;9.20;;
20411;SDS011;10365;52.578;8.138;2024-01-06T03:29:07;17.65;;;9.95;;
20411;SDS011;10365;52.578;8.138;2024-01-06T03:31:32;18.17;;;9.60;;
20411;SDS011;10365;52.578;8.138;2024-01-06T03:33:58;18.92;;;10.07;;
20411;SDS011;10365;52.578;8.138;2024-01-06T03:36:23;20.20;;;10.50;;
20411;SDS011;10365;52.578;8.138;2024-01-06T03:38:49;20.90;;;10.85;;
20411;SDS011;10365;52.578;8.138;2024-01-06T03:41:14;17.73;;;9.95;;
20411;SDS011;10365;52.578;8.138;2024-01-06T03:43:40;17.77;;;9.52;;
20411;SDS011;10365;52.578;8.138;2024-01-06T03:46:05;19.38;;;10.40;;
20411;SDS011;10365;52.578;8.138;2024-01-06T03:48:30;18.10;;;9.75;;
20411;SDS011;10365;52.578;8.138;2024-01-06T03:50:57;20.50;;;9.68;;
20411;SDS011;10365;52.578;8.138;2024-01-06T03:53:22;20.13;;;10.30;;
20411;SDS011;10365;52.578;8.138;2024-01-06T03:55:47;18.30;;;10.10;;
20411;SDS011;10365;52.578;8.138;2024-01-06T03:58:12;15.77;;;8.85;;
20411;SDS011;10365;52.578;8.138;2024-01-06T04:00:38;15.52;;;9.20;;
20411;SDS011;10365;52.578;8.138;2024-01-06T04:03:03;16.15;;;9.02;;
20411;SDS011;10365;52.578;8.138;2024-01-06T04:05:29;14.98;;;8.77;;
20411;SDS011;10365;52.578;8.138;2024-01-06T04:07:54;17.05;;;9.68;;
20411;SDS011;10365;52.578;8.138;2024-01-06T04:10:20;18.63;;;9.57;;
20411;SDS011;10365;52.578;8.138;2024-01-06T04:12:45;18.25;;;9.85;;
20411;SDS011;10365;52.578;8.138;2024-01-06T04:15:10;18.58;;;10.00;;
20411;SDS011;10365;52.578;8.138;2024-01-06T04:17:36;18.92;;;10.45;;
20411;SDS011;10365;52.578;8.138;2024-01-06T04:20:01;19.05;;;9.82;;
20411;SDS011;10365;52.578;8.138;2024-01-06T04:22:26;22.20;;;11.18;;
20411;SDS011;10365;52.578;8.138;2024-01-06T04:24:52;21.83;;;10.68;;
20411;SDS011;10365;52.578;8.138;2024-01-06T04:27:17;23.80;;;11.13;;
20411;SDS011;10365;52.578;8.138;2024-01-06T04:29:43;23.10;;;11.82;;
20411;SDS011;10365;52.578;8.138;2024-01-06T04:32:08;25.75;;;11.48;;
20411;SDS011;10365;52.578;8.138;2024-01-06T04:34:34;27.15;;;13.05;;
20411;SDS011;10365;52.578;8.138;2024-01-06T04:36:59;24.42;;;13.10;;
20411;SDS011;10365;52.578;8.138;2024-01-06T04:39:24;29.02;;;13.80;;
20411;SDS011;10365;52.578;8.138;2024-01-06T04:41:49;27.50;;;12.55;;
20411;SDS011;10365;52.578;8.138;2024-01-06T04:44:15;22.65;;;12.30;;
20411;SDS011;10365;52.578;8.138;2024-01-06T04:46:40;29.58;;;12.02;;
20411;SDS011;10365;52.578;8.138;2024-01-06T04:49:06;23.00;;;12.02;;
20411;SDS011;10365;52.578;8.138;2024-01-06T04:51:31;23.15;;;12.02;;
20411;SDS011;10365;52.578;8.138;2024-01-06T04:53:56;23.40;;;11.80;;
20411;SDS011;10365;52.578;8.138;2024-01-06T04:56:22;26.90;;;12.55;;
20411;SDS011;10365;52.578;8.138;2024-01-06T04:58:47;23.77;;;11.95;;
20411;SDS011;10365;52.578;8.138;2024-01-06T05:01:12;28.88;;;13.80;;
20411;SDS011;10365;52.578;8.138;2024-01-06T05:03:38;26.77;;;13.20;;
20411;SDS011;10365;52.578;8.138;2024-01-06T05:06:03;26.38;;;12.93;;
20411;SDS011;10365;52.578;8.138;2024-01-06T05:08:29;32.38;;;14.18;;
20411;SDS011;10365;52.578;8.138;2024-01-06T05:10:58;29.60;;;14.13;;
20411;SDS011;10365;52.578;8.138;2024-01-06T05:13:24;29.25;;;13.70;;
20411;SDS011;10365;52.578;8.138;2024-01-06T05:15:49;29.83;;;13.20;;
20411;SDS011;10365;52.578;8.138;2024-01-06T05:18:14;29.45;;;13.40;;
20411;SDS011;10365;52.578;8.138;2024-01-06T05:20:40;32.13;;;13.77;;
20411;SDS011;10365;52.578;8.138;2024-01-06T05:23:06;29.90;;;14.43;;
20411;SDS011;10365;52.578;8.138;2024-01-06T05:25:31;27.00;;;12.88;;
20411;SDS011;10365;52.578;8.138;2024-01-06T05:27:57;28.88;;;13.88;;
20411;SDS011;10365;52.578;8.138;2024-01-06T05:30:22;29.70;;;13.73;;
20411;SDS011;10365;52.578;8.138;2024-01-06T05:32:47;27.15;;;11.68;;
20411;SDS011;10365;52.578;8.138;2024-01-06T05:35:12;23.90;;;11.63;;
20411;SDS011;10365;52.578;8.138;2024-01-06T05:37:38;24.30;;;10.75;;
20411;SDS011;10365;52.578;8.138;2024-01-06T05:40:04;26.98;;;11.40;;
20411;SDS011;10365;52.578;8.138;2024-01-06T05:42:30;23.58;;;10.75;;
20411;SDS011;10365;52.578;8.138;2024-01-06T05:44:55;23.88;;;11.32;;
20411;SDS011;10365;52.578;8.138;2024-01-06T05:47:21;24.23;;;11.15;;
20411;SDS011;10365;52.578;8.138;2024-01-06T05:49:46;23.58;;;10.88;;
20411;SDS011;10365;52.578;8.138;2024-01-06T05:52:11;27.20;;;10.80;;
20411;SDS011;10365;52.578;8.138;2024-01-06T05:54:39;30.13;;;11.32;;
20411;SDS011;10365;52.578;8.138;2024-01-06T05:57:05;25.55;;;10.80;;
20411;SDS011;10365;52.578;8.138;2024-01-06T05:59:32;25.85;;;11.32;;
20411;SDS011;10365;52.578;8.138;2024-01-06T06:01:57;19.23;;;9.10;;
20411;SDS011;10365;52.578;8.138;2024-01-06T06:04:23;22.33;;;10.52;;
20411;SDS011;10365;52.578;8.138;2024-01-06T06:06:48;21.70;;;9.40;;
20411;SDS011;10365;52.578;8.138;2024-01-06T06:09:13;21.17;;;10.68;;
20411;SDS011;10365;52.578;8.138;2024-01-06T06:11:38;24.02;;;11.25;;
20411;SDS011;10365;52.578;8.138;2024-01-06T06:14:04;22.27;;;10.57;;
20411;SDS011;10365;52.578;8.138;2024-01-06T06:16:30;21.95;;;9.95;;
20411;SDS011;10365;52.578;8.138;2024-01-06T06:18:56;21.17;;;8.75;;
20411;SDS011;10365;52.578;8.138;2024-01-06T06:21:21;18.60;;;8.93;;
20411;SDS011;10365;52.578;8.138;2024-01-06T06:23:47;18.35;;;8.90;;
20411;SDS011;10365;52.578;8.138;2024-01-06T06:26:13;19.50;;;9.02;;
20411;SDS011;10365;52.578;8.138;2024-01-06T06:28:38;17.80;;;7.88;;
20411;SDS011;10365;52.578;8.138;2024-01-06T06:31:03;18.50;;;7.90;;
20411;SDS011;10365;52.578;8.138;2024-01-06T06:33:29;16.08;;;7.45;;
20411;SDS011;10365;52.578;8.138;2024-01-06T06:35:54;16.17;;;8.00;;
20411;SDS011;10365;52.578;8.138;2024-01-06T06:38:20;18.63;;;8.15;;
20411;SDS011;10365;52.578;8.138;2024-01-06T06:40:46;15.43;;;7.82;;
20411;SDS011;10365;52.578;8.138;2024-01-06T06:43:12;16.67;;;7.85;;
20411;SDS011;10365;52.578;8.138;2024-01-06T06:45:37;15.48;;;7.75;;
20411;SDS011;10365;52.578;8.138;2024-01-06T06:48:03;15.63;;;7.28;;
20411;SDS011;10365;52.578;8.138;2024-01-06T06:50:28;19.05;;;8.25;;
20411;SDS011;10365;52.578;8.138;2024-01-06T06:52:53;18.55;;;8.43;;
20411;SDS011;10365;52.578;8.138;2024-01-06T06:55:19;26.13;;;9.55;;
20411;SDS011;10365;52.578;8.138;2024-01-06T06:57:44;22.20;;;8.65;;
20411;SDS011;10365;52.578;8.138;2024-01-06T07:00:10;16.92;;;7.47;;
20411;SDS011;10365;52.578;8.138;2024-01-06T07:02:36;18.42;;;8.05;;
20411;SDS011;10365;52.578;8.138;2024-01-06T07:05:02;15.70;;;7.88;;
20411;SDS011;10365;52.578;8.138;2024-01-06T07:07:27;16.38;;;7.25;;
20411;SDS011;10365;52.578;8.138;2024-01-06T07:09:54;16.20;;;7.60;;
20411;SDS011;10365;52.578;8.138;2024-01-06T07:12:19;17.75;;;8.32;;
20411;SDS011;10365;52.578;8.138;2024-01-06T07:14:44;15.65;;;7.53;;
20411;SDS011;10365;52.578;8.138;2024-01-06T07:17:09;16.30;;;7.97;;
20411;SDS011;10365;52.578;8.138;2024-01-06T07:19:36;17.17;;;7.53;;
20411;SDS011;10365;52.578;8.138;2024-01-06T07:22:01;19.35;;;8.15;;
20411;SDS011;10365;52.578;8.138;2024-01-06T07:24:26;17.25;;;7.45;;
20411;SDS011;10365;52.578;8.138;2024-01-06T07:26:53;19.27;;;7.95;;
20411;SDS011;10365;52.578;8.138;2024-01-06T07:29:18;23.45;;;7.75;;
20411;SDS011;10365;52.578;8.138;2024-01-06T07:31:44;16.25;;;7.30;;
20411;SDS011;10365;52.578;8.138;2024-01-06T07:34:09;18.25;;;7.70;;
20411;SDS011;10365;52.578;8.138;2024-01-06T07:36:34;14.75;;;7.85;;
20411;SDS011;10365;52.578;8.138;2024-01-06T07:39:00;17.75;;;8.02;;
20411;SDS011;10365;52.578;8.138;2024-01-06T07:41:25;19.05;;;7.72;;
20411;SDS011;10365;52.578;8.138;2024-01-06T07:43:50;17.02;;;7.95;;
20411;SDS011;10365;52.578;8.138;2024-01-06T07:46:16;17.75;;;7.35;;
20411;SDS011;10365;52.578;8.138;2024-01-06T07:48:41;15.65;;;6.75;;
20411;SDS011;10365;52.578;8.138;2024-01-06T07:51:07;15.80;;;7.50;;
20411;SDS011;10365;52.578;8.138;2024-01-06T07:53:32;17.20;;;8.38;;
20411;SDS011;10365;52.578;8.138;2024-01-06T07:55:58;19.13;;;8.55;;
20411;SDS011;10365;52.578;8.138;2024-01-06T07:58:24;19.52;;;8.45;;
20411;SDS011;10365;52.578;8.138;2024-01-06T08:00:49;15.45;;;8.07;;
20411;SDS011;10365;52.578;8.138;2024-01-06T08:03:14;19.50;;;8.73;;
20411;SDS011;10365;52.578;8.138;2024-01-06T08:05:41;21.00;;;8.77;;
20411;SDS011;10365;52.578;8.138;2024-01-06T08:08:08;20.75;;;9.40;;
20411;SDS011;10365;52.578;8.138;2024-01-06T08:10:33;23.02;;;9.43;;
20411;SDS011;10365;52.578;8.138;2024-01-06T08:12:58;17.02;;;8.18;;
20411;SDS011;10365;52.578;8.138;2024-01-06T08:15:24;16.35;;;7.97;;
20411;SDS011;10365;52.578;8.138;2024-01-06T08:17:49;20.23;;;9.13;;
20411;SDS011;10365;52.578;8.138;2024-01-06T08:20:15;25.02;;;9.25;;
20411;SDS011;10365;52.578;8.138;2024-01-06T08:22:40;19.15;;;9.00;;
20411;SDS011;10365;52.578;8.138;2024-01-06T08:25:05;17.65;;;9.52;;
20411;SDS011;10365;52.578;8.138;2024-01-06T08:27:33;18.70;;;8.65;;
20411;SDS011;10365;52.578;8.138;2024-01-06T08:29:59;18.27;;;8.90;;
20411;SDS011;10365;52.578;8.138;2024-01-06T08:32:24;19.42;;;8.77;;
20411;SDS011;10365;52.578;8.138;2024-01-06T08:34:50;21.20;;;9.38;;
20411;SDS011;10365;52.578;8.138;2024-01-06T08:37:15;17.30;;;9.50;;
20411;SDS011;10365;52.578;8.138;2024-01-06T08:39:40;19.45;;;9.50;;
20411;SDS011;10365;52.578;8.138;2024-01-06T08:42:06;21.83;;;9.98;;
20411;SDS011;10365;52.578;8.138;2024-01-06T08:44:31;20.08;;;9.32;;
20411;SDS011;10365;52.578;8.138;2024-01-06T08:46:56;22.17;;;10.13;;
20411;SDS011;10365;52.578;8.138;2024-01-06T08:49:22;20.70;;;9.63;;
20411;SDS011;10365;52.578;8.138;2024-01-06T08:51:47;26.27;;;10.23;;
20411;SDS011;10365;52.578;8.138;2024-01-06T08:54:12;22.77;;;10.50;;
20411;SDS011;10365;52.578;8.138;2024-01-06T08:56:38;20.17;;;9.85;;
20411;SDS011;10365;52.578;8.138;2024-01-06T08:59:03;22.55;;;9.85;;
20411;SDS011;10365;52.578;8.138;2024-01-06T09:01:28;20.75;;;9.55;;
20411;SDS011;10365;52.578;8.138;2024-01-06T09:03:54;19.63;;;9.57;;
20411;SDS011;10365;52.578;8.138;2024-01-06T09:06:19;22.50;;;9.73;;
20411;SDS011;10365;52.578;8.138;2024-01-06T09:08:44;17.88;;;9.35;;
20411;SDS011;10365;52.578;8.138;2024-01-06T09:11:10;26.05;;;9.45;;
20411;SDS011;10365;52.578;8.138;2024-01-06T09:13:35;22.20;;;10.55;;
20411;SDS011;10365;52.578;8.138;2024-01-06T09:16:00;23.80;;;10.13;;
20411;SDS011;10365;52.578;8.138;2024-01-06T09:18:26;20.88;;;9.85;;
20411;SDS011;10365;52.578;8.138;2024-01-06T09:20:51;20.65;;;10.77;;
20411;SDS011;10365;52.578;8.138;2024-01-06T09:23:17;21.55;;;9.95;;
20411;SDS011;10365;52.578;8.138;2024-01-06T09:25:42;22.30;;;10.90;;
20411;SDS011;10365;52.578;8.138;2024-01-06T09:28:07;21.60;;;10.63;;
20411;SDS011;10365;52.578;8.138;2024-01-06T09:30:33;25.15;;;10.85;;
20411;SDS011;10365;52.578;8.138;2024-01-06T09:32:58;25.83;;;10.70;;
20411;SDS011;10365;52.578;8.138;2024-01-06T09:35:24;24.60;;;9.85;;
20411;SDS011;10365;52.578;8.138;2024-01-06T09:37:49;22.48;;;10.80;;
20411;SDS011;10365;52.578;8.138;2024-01-06T09:40:15;17.75;;;8.30;;
20411;SDS011;10365;52.578;8.138;2024-01-06T09:42:44;21.75;;;8.50;;
20411;SDS011;10365;52.578;8.138;2024-01-06T09:45:09;20.58;;;9.38;;
20411;SDS011;10365;52.578;8.138;2024-01-06T09:47:35;24.63;;;9.88;;
20411;SDS011;10365;52.578;8.138;2024-01-06T09:50:01;29.17;;;11.15;;
20411;SDS011;10365;52.578;8.138;2024-01-06T09:52:30;18.52;;;8.80;;
20411;SDS011;10365;52.578;8.138;2024-01-06T09:54:57;17.40;;;9.02;;
20411;SDS011;10365;52.578;8.138;2024-01-06T09:57:24;17.83;;;8.00;;
20411;SDS011;10365;52.578;8.138;2024-01-06T09:59:50;19.77;;;8.52;;
20411;SDS011;10365;52.578;8.138;2024-01-06T10:02:16;19.60;;;8.85;;
20411;SDS011;10365;52.578;8.138;2024-01-06T10:04:44;15.85;;;8.02;;
20411;SDS011;10365;52.578;8.138;2024-01-06T10:07:10;20.73;;;9.30;;
20411;SDS011;10365;52.578;8.138;2024-01-06T10:09:38;15.48;;;8.05;;
20411;SDS011;10365;52.578;8.138;2024-01-06T10:12:04;22.85;;;8.05;;
20411;SDS011;10365;52.578;8.138;2024-01-06T10:14:29;17.55;;;7.97;;
20411;SDS011;10365;52.578;8.138;2024-01-06T10:16:55;16.95;;;6.70;;
20411;SDS011;10365;52.578;8.138;2024-01-06T10:19:20;14.93;;;7.63;;
20411;SDS011;10365;52.578;8.138;2024-01-06T10:21:46;16.00;;;7.05;;
20411;SDS011;10365;52.578;8.138;2024-01-06T10:24:11;16.08;;;6.90;;
20411;SDS011;10365;52.578;8.138;2024-01-06T10:26:36;13.80;;;6.75;;
20411;SDS011;10365;52.578;8.138;2024-01-06T10:29:02;15.35;;;6.50;;
20411;SDS011;10365;52.578;8.138;2024-01-06T10:31:29;15.57;;;7.28;;
20411;SDS011;10365;52.578;8.138;2024-01-06T10:33:54;15.60;;;7.07;;
20411;SDS011;10365;52.578;8.138;2024-01-06T10:36:19;19.52;;;7.22;;
20411;SDS011;10365;52.578;8.138;2024-01-06T10:38:45;13.90;;;7.15;;
20411;SDS011;10365;52.578;8.138;2024-01-06T10:41:11;15.00;;;7.22;;
20411;SDS011;10365;52.578;8.138;2024-01-06T10:43:36;14.82;;;6.70;;
20411;SDS011;10365;52.578;8.138;2024-01-06T10:46:05;16.45;;;6.40;;
20411;SDS011;10365;52.578;8.138;2024-01-06T10:48:35;16.17;;;7.28;;
20411;SDS011;10365;52.578;8.138;2024-01-06T10:51:01;13.93;;;6.45;;
20411;SDS011;10365;52.578;8.138;2024-01-06T10:53:27;12.68;;;6.65;;
20411;SDS011;10365;52.578;8.138;2024-01-06T10:55:53;17.13;;;7.35;;
20411;SDS011;10365;52.578;8.138;2024-01-06T10:58:18;16.10;;;7.75;;
20411;SDS011;10365;52.578;8.138;2024-01-06T11:00:45;17.58;;;7.10;;
20411;SDS011;10365;52.578;8.138;2024-01-06T11:03:10;16.65;;;6.72;;
20411;SDS011;10365;52.578;8.138;2024-01-06T11:05:40;13.85;;;6.72;;
20411;SDS011;10365;52.578;8.138;2024-01-06T11:08:06;14.40;;;7.10;;
20411;SDS011;10365;52.578;8.138;2024-01-06T11:10:37;17.15;;;7.70;;
20411;SDS011;10365;52.578;8.138;2024-01-06T11:13:05;16.80;;;8.43;;
20411;SDS011;10365;52.578;8.138;2024-01-06T11:15:38;14.95;;;7.95;;
20411;SDS011;10365;52.578;8.138;2024-01-06T11:18:05;15.07;;;7.95;;
20411;SDS011;10365;52.578;8.138;2024-01-06T11:20:30;18.13;;;8.18;;
20411;SDS011;10365;52.578;8.138;2024-01-06T11:22:57;19.48;;;8.15;;
20411;SDS011;10365;52.578;8.138;2024-01-06T11:25:41;20.55;;;7.85;;
20411;SDS011;10365;52.578;8.138;2024-01-06T11:28:07;14.85;;;8.02;;
20411;SDS011;10365;52.578;8.138;2024-01-06T11:30:33;16.48;;;7.63;;
20411;SDS011;10365;52.578;8.138;2024-01-06T11:32:59;19.25;;;7.82;;
20411;SDS011;10365;52.578;8.138;2024-01-06T11:35:26;13.82;;;6.68;;
20411;SDS011;10365;52.578;8.138;2024-01-06T11:37:52;15.32;;;6.93;;
20411;SDS011;10365;52.578;8.138;2024-01-06T11:42:45;13.82;;;7.10;;
20411;SDS011;10365;52.578;8.138;2024-01-06T11:45:11;16.05;;;7.00;;
20411;SDS011;10365;52.578;8.138;2024-01-06T11:47:37;18.40;;;7.68;;
20411;SDS011;10365;52.578;8.138;2024-01-06T11:50:04;15.73;;;7.07;;
20411;SDS011;10365;52.578;8.138;2024-01-06T11:52:30;15.05;;;7.35;;
20411;SDS011;10365;52.578;8.138;2024-01-06T11:54:55;16.80;;;8.18;;
20411;SDS011;10365;52.578;8.138;2024-01-06T11:57:22;17.85;;;8.00;;
20411;SDS011;10365;52.578;8.138;2024-01-06T11:59:47;17.33;;;8.63;;
20411;SDS011;10365;52.578;8.138;2024-01-06T12:02:13;17.33;;;8.68;;
20411;SDS011;10365;52.578;8.138;2024-01-06T12:04:39;19.63;;;9.00;;
20411;SDS011;10365;52.578;8.138;2024-01-06T12:07:06;20.00;;;9.15;;
20411;SDS011;10365;52.578;8.138;2024-01-06T12:09:32;20.02;;;8.82;;
20411;SDS011;10365;52.578;8.138;2024-01-06T12:12:04;19.35;;;9.07;;
20411;SDS011;10365;52.578;8.138;2024-01-06T12:14:30;16.45;;;8.38;;
20411;SDS011;10365;52.578;8.138;2024-01-06T12:16:57;17.05;;;7.47;;
20411;SDS011;10365;52.578;8.138;2024-01-06T12:19:27;17.15;;;8.80;;
20411;SDS011;10365;52.578;8.138;2024-01-06T12:21:53;21.98;;;8.05;;
20411;SDS011;10365;52.578;8.138;2024-01-06T12:24:18;18.02;;;7.57;;
20411;SDS011;10365;52.578;8.138;2024-01-06T12:26:47;15.85;;;6.85;;
20411;SDS011;10365;52.578;8.138;2024-01-06T12:29:15;15.45;;;7.35;;
20411;SDS011;10365;52.578;8.138;2024-01-06T12:31:41;18.67;;;8.50;;
20411;SDS011;10365;52.578;8.138;2024-01-06T12:34:07;19.65;;;8.93;;
20411;SDS011;10365;52.578;8.138;2024-01-06T12:36:39;21.95;;;9.63;;
20411;SDS011;10365;52.578;8.138;2024-01-06T12:39:05;17.60;;;8.55;;
20411;SDS011;10365;52.578;8.138;2024-01-06T12:41:30;17.17;;;8.07;;
20411;SDS011;10365;52.578;8.138;2024-01-06T12:43:58;13.57;;;7.85;;
20411;SDS011;10365;52.578;8.138;2024-01-06T12:46:24;13.60;;;7.70;;
20411;SDS011;10365;52.578;8.138;2024-01-06T12:48:49;15.07;;;6.60;;
20411;SDS011;10365;52.578;8.138;2024-01-06T12:51:14;15.88;;;7.53;;
20411;SDS011;10365;52.578;8.138;2024-01-06T12:53:40;18.40;;;9.07;;
20411;SDS011;10365;52.578;8.138;2024-01-06T12:56:05;20.17;;;9.93;;
20411;SDS011;10365;52.578;8.138;2024-01-06T12:58:32;19.30;;;10.07;;
20411;SDS011;10365;52.578;8.138;2024-01-06T13:00:58;20.77;;;9.77;;
20411;SDS011;10365;52.578;8.138;2024-01-06T13:03:23;21.25;;;9.90;;
20411;SDS011;10365;52.578;8.138;2024-01-06T13:05:50;23.80;;;10.40;;
20411;SDS011;10365;52.578;8.138;2024-01-06T13:08:15;25.30;;;11.82;;
20411;SDS011;10365;52.578;8.138;2024-01-06T13:10:41;26.08;;;11.13;;
20411;SDS011;10365;52.578;8.138;2024-01-06T13:13:06;25.17;;;11.93;;
20411;SDS011;10365;52.578;8.138;2024-01-06T13:15:32;27.05;;;11.38;;
20411;SDS011;10365;52.578;8.138;2024-01-06T13:17:57;27.52;;;12.43;;
20411;SDS011;10365;52.578;8.138;2024-01-06T13:20:24;20.52;;;10.70;;
20411;SDS011;10365;52.578;8.138;2024-01-06T13:22:49;28.48;;;11.68;;
20411;SDS011;10365;52.578;8.138;2024-01-06T13:25:18;25.30;;;10.93;;
20411;SDS011;10365;52.578;8.138;2024-01-06T13:27:45;22.00;;;10.52;;
20411;SDS011;10365;52.578;8.138;2024-01-06T13:30:10;22.30;;;10.10;;
20411;SDS011;10365;52.578;8.138;2024-01-06T13:32:38;24.95;;;10.95;;
20411;SDS011;10365;52.578;8.138;2024-01-06T13:35:03;19.98;;;10.15;;
20411;SDS011;10365;52.578;8.138;2024-01-06T13:37:32;25.05;;;10.15;;
20411;SDS011;10365;52.578;8.138;2024-01-06T13:39:57;19.70;;;10.13;;
20411;SDS011;10365;52.578;8.138;2024-01-06T13:42:22;20.83;;;10.32;;
20411;SDS011;10365;52.578;8.138;2024-01-06T13:44:48;24.13;;;10.57;;
20411;SDS011;10365;52.578;8.138;2024-01-06T13:47:13;19.75;;;9.95;;
20411;SDS011;10365;52.578;8.138;2024-01-06T13:49:39;19.73;;;9.18;;
20411;SDS011;10365;52.578;8.138;2024-01-06T13:52:06;19.70;;;8.98;;
20411;SDS011;10365;52.578;8.138;2024-01-06T13:54:33;18.60;;;9.50;;
20411;SDS011;10365;52.578;8.138;2024-01-06T13:56:58;18.17;;;8.75;;
20411;SDS011;10365;52.578;8.138;2024-01-06T13:59:24;18.23;;;9.48;;
20411;SDS011;10365;52.578;8.138;2024-01-06T14:01:49;20.88;;;9.18;;
20411;SDS011;10365;52.578;8.138;2024-01-06T14:04:14;21.15;;;9.35;;
20411;SDS011;10365;52.578;8.138;2024-01-06T14:06:40;20.10;;;9.73;;
20411;SDS011;10365;52.578;8.138;2024-01-06T14:09:05;22.92;;;10.18;;
20411;SDS011;10365;52.578;8.138;2024-01-06T14:11:31;22.02;;;10.13;;
20411;SDS011;10365;52.578;8.138;2024-01-06T14:13:58;23.77;;;11.75;;
20411;SDS011;10365;52.578;8.138;2024-01-06T14:16:23;24.15;;;10.75;;
20411;SDS011;10365;52.578;8.138;2024-01-06T14:18:48;20.58;;;10.15;;
20411;SDS011;10365;52.578;8.138;2024-01-06T14:21:14;24.77;;;11.98;;
20411;SDS011;10365;52.578;8.138;2024-01-06T14:23:43;29.83;;;11.30;;